createdAt,value
2023-03-03T00:00:16.545Z,40
2023-03-03T00:05:16.329Z,39
2023-03-03T00:10:16.144Z,41
2023-03-03T00:15:16.025Z,40
2023-03-03T00:20:15.886Z,40
2023-03-03T00:25:19.732Z,40
2023-03-03T00:30:22.718Z,39
2023-03-03T00:35:20.663Z,40
2023-03-03T00:40:19.552Z,40
2023-03-03T00:45:18.422Z,40
2023-03-03T00:50:20.342Z,39
2023-03-03T00:55:14.093Z,40
2023-03-03T01:00:19.926Z,39
2023-03-03T01:05:19.847Z,40
2023-03-03T01:10:19.771Z,39
2023-03-03T01:15:14.652Z,40
2023-03-03T01:20:16.576Z,40
2023-03-03T01:25:14.326Z,39
2023-03-03T01:30:20.188Z,39
2023-03-03T01:35:14.040Z,40
2023-03-03T01:40:19.839Z,39
2023-03-03T01:45:15.670Z,40
2023-03-03T01:50:20.451Z,40
2023-03-03T01:55:18.190Z,39
2023-03-03T02:00:14.184Z,40
2023-03-03T02:05:16.080Z,39
2023-03-03T02:10:21.985Z,39
2023-03-03T02:15:19.923Z,40
2023-03-03T02:20:15.814Z,40
2023-03-03T02:25:15.722Z,40
2023-03-03T02:30:16.602Z,40
2023-03-03T02:35:24.782Z,40
2023-03-03T02:40:13.716Z,40
2023-03-03T02:45:16.625Z,40
2023-03-03T02:50:18.438Z,40
2023-03-03T02:55:18.583Z,40
2023-03-03T03:00:16.414Z,40
2023-03-03T03:05:22.198Z,40
2023-03-03T03:10:14.000Z,40
2023-03-03T03:15:17.931Z,40
2023-03-03T03:20:19.898Z,40
2023-03-03T03:25:19.671Z,40
2023-03-03T03:30:16.526Z,40
2023-03-03T03:35:20.655Z,40
2023-03-03T03:40:22.485Z,40
2023-03-03T03:45:16.531Z,40
2023-03-03T03:50:20.340Z,40
2023-03-03T03:55:18.307Z,40
2023-03-03T04:00:20.264Z,40
2023-03-03T04:05:16.166Z,40
2023-03-03T04:10:13.918Z,40
2023-03-03T04:15:13.748Z,40
2023-03-03T04:20:18.692Z,40
2023-03-03T04:25:16.402Z,40
2023-03-03T04:30:22.297Z,40
2023-03-03T04:35:20.403Z,38
2023-03-03T04:40:16.217Z,39
2023-03-03T04:45:20.262Z,39
2023-03-03T04:50:22.080Z,38
2023-03-03T04:55:19.955Z,38
2023-03-03T05:00:13.952Z,43
2023-03-03T05:05:16.204Z,43
2023-03-03T05:10:14.219Z,44
2023-03-03T05:15:16.226Z,43
2023-03-03T05:20:24.091Z,42
2023-03-03T05:25:19.969Z,42
2023-03-03T05:30:16.010Z,42
2023-03-03T05:35:15.777Z,43
2023-03-03T05:40:16.879Z,41
2023-03-03T05:45:13.691Z,42
2023-03-03T05:50:20.500Z,41
2023-03-03T05:55:22.312Z,42
2023-03-03T06:00:16.169Z,43
2023-03-03T06:05:20.468Z,43
2023-03-03T06:10:16.248Z,40
2023-03-03T06:15:16.172Z,43
2023-03-03T06:20:14.183Z,41
2023-03-03T06:25:18.093Z,41
2023-03-03T06:30:18.225Z,42
2023-03-03T06:35:16.057Z,40
2023-03-03T06:40:15.885Z,41
2023-03-03T06:45:23.739Z,41
2023-03-03T06:50:14.589Z,40
2023-03-03T06:55:20.583Z,41
2023-03-03T07:00:31.285Z,41
2023-03-03T07:05:16.458Z,41
2023-03-03T07:10:14.327Z,40
2023-03-03T07:15:18.179Z,40
2023-03-03T07:20:18.035Z,41
2023-03-03T07:25:13.893Z,40
2023-03-03T07:30:25.923Z,40
2023-03-03T07:35:15.688Z,41
2023-03-03T07:40:14.451Z,41
2023-03-03T07:45:16.364Z,40
2023-03-03T07:50:16.203Z,40
2023-03-03T07:55:15.959Z,40
2023-03-03T08:00:15.783Z,40
2023-03-03T08:05:17.635Z,40
2023-03-03T08:10:16.929Z,40
2023-03-03T08:15:13.817Z,40
2023-03-03T08:20:19.710Z,40
2023-03-03T08:25:14.567Z,40
2023-03-03T08:30:16.449Z,40
2023-03-03T08:35:16.246Z,40
2023-03-03T08:40:14.302Z,40
2023-03-03T08:45:14.159Z,40
2023-03-03T08:50:16.062Z,39
2023-03-03T08:55:17.918Z,38
2023-03-03T09:00:15.754Z,38
2023-03-03T09:05:20.156Z,40
2023-03-03T09:10:24.090Z,38
2023-03-03T09:15:18.019Z,39
2023-03-03T09:20:17.885Z,40
2023-03-03T09:25:18.001Z,40
2023-03-03T09:30:19.897Z,40
2023-03-03T09:35:17.821Z,39
2023-03-03T09:40:21.687Z,40
2023-03-03T09:45:20.593Z,40
2023-03-03T09:50:16.782Z,40
2023-03-03T09:55:18.623Z,39
2023-03-03T10:00:14.519Z,40
2023-03-03T10:05:23.892Z,40
2023-03-03T10:10:19.809Z,40
2023-03-03T10:15:21.654Z,40
2023-03-03T10:20:22.633Z,39
2023-03-03T10:25:14.406Z,40
2023-03-03T10:30:20.237Z,40
2023-03-03T10:35:16.418Z,40
2023-03-03T10:40:22.232Z,40
2023-03-03T10:45:18.502Z,40
2023-03-03T10:50:14.392Z,39
2023-03-03T10:55:18.158Z,41
2023-03-03T11:00:20.182Z,42
2023-03-03T11:05:16.465Z,43
2023-03-03T11:10:16.315Z,43
2023-03-03T11:15:30.607Z,43
2023-03-03T11:20:24.862Z,42
2023-03-03T11:25:16.245Z,43
2023-03-03T11:30:18.300Z,43
2023-03-03T11:35:18.303Z,42
2023-03-03T11:40:14.315Z,42
2023-03-03T11:45:16.303Z,41
2023-03-03T11:50:18.247Z,42
2023-03-03T11:55:23.818Z,43
2023-03-03T12:00:13.928Z,42
2023-03-03T12:05:15.599Z,43
2023-03-03T12:10:16.853Z,43
2023-03-03T12:15:15.951Z,43
2023-03-03T12:20:17.858Z,43
2023-03-03T12:25:20.687Z,42
2023-03-03T12:30:16.946Z,42
2023-03-03T12:35:17.698Z,42
2023-03-03T12:40:14.585Z,42
2023-03-03T12:45:14.448Z,42
2023-03-03T12:50:23.888Z,42
2023-03-03T12:55:13.798Z,42
2023-03-03T13:00:18.761Z,41
2023-03-03T13:05:15.599Z,41
2023-03-03T13:10:20.560Z,40
2023-03-03T13:15:16.329Z,41
2023-03-03T13:20:16.057Z,40
2023-03-03T13:25:14.569Z,40
2023-03-03T13:30:16.626Z,41
2023-03-03T13:35:18.604Z,40
2023-03-03T13:40:14.420Z,41
2023-03-03T13:45:14.294Z,41
2023-03-03T13:50:18.194Z,41
2023-03-03T13:55:22.086Z,40
2023-03-03T14:00:17.922Z,41
2023-03-03T14:05:22.169Z,41
2023-03-03T14:10:23.997Z,41
2023-03-03T14:15:13.853Z,40
2023-03-03T14:20:15.209Z,42
2023-03-03T14:25:14.119Z,42
2023-03-03T14:30:22.154Z,41
2023-03-03T14:35:15.985Z,41
2023-03-03T14:40:19.937Z,41
2023-03-03T14:45:30.414Z,42
2023-03-03T14:50:16.716Z,41
2023-03-03T14:55:14.762Z,42
2023-03-03T15:00:16.707Z,42
2023-03-03T15:05:14.832Z,42
2023-03-03T15:10:21.882Z,42
2023-03-03T15:15:13.774Z,42
2023-03-03T15:20:17.538Z,43
2023-03-03T15:25:20.887Z,42
2023-03-03T15:30:20.205Z,43
2023-03-03T15:35:17.970Z,43
2023-03-03T15:40:17.813Z,42
2023-03-03T15:45:15.965Z,42
2023-03-03T15:50:13.764Z,42
2023-03-03T15:55:20.519Z,42
2023-03-03T16:00:20.430Z,42
2023-03-03T16:05:18.474Z,42
2023-03-03T16:10:14.284Z,42
2023-03-03T16:15:16.165Z,42
2023-03-03T16:20:16.038Z,42
2023-03-03T16:25:14.814Z,42
2023-03-03T16:30:19.644Z,42
2023-03-03T16:35:16.412Z,42
2023-03-03T16:40:24.442Z,42
2023-03-03T16:45:16.292Z,42
2023-03-03T16:50:16.468Z,41
2023-03-03T16:55:16.310Z,42
2023-03-03T17:00:14.300Z,41
2023-03-03T17:05:16.710Z,42
2023-03-03T17:10:20.958Z,41
2023-03-03T17:15:17.734Z,42
2023-03-03T17:20:14.810Z,43
2023-03-03T17:25:13.643Z,44
2023-03-03T17:30:22.373Z,44
2023-03-03T17:35:20.423Z,44
2023-03-03T17:40:16.466Z,44
2023-03-03T17:45:24.322Z,44
2023-03-03T17:50:20.289Z,44
2023-03-03T17:55:22.047Z,43
2023-03-03T18:00:19.604Z,44
2023-03-03T18:05:16.291Z,44
2023-03-03T18:10:22.089Z,42
2023-03-03T18:15:22.046Z,44
2023-03-03T18:20:15.960Z,43
2023-03-03T18:25:13.740Z,44
2023-03-03T18:30:18.673Z,44
2023-03-03T18:35:16.611Z,44
2023-03-03T18:40:22.549Z,43
2023-03-03T18:45:14.416Z,44
2023-03-03T18:50:20.282Z,43
2023-03-03T18:55:18.038Z,44
2023-03-03T19:00:15.858Z,44
2023-03-03T19:05:17.519Z,44
2023-03-03T19:10:18.945Z,43
2023-03-03T19:15:17.830Z,44
2023-03-03T19:20:20.114Z,44
2023-03-03T19:25:18.128Z,43
2023-03-03T19:30:15.998Z,44
2023-03-03T19:35:19.898Z,43
2023-03-03T19:40:14.109Z,43
2023-03-03T19:45:20.133Z,45
2023-03-03T19:50:23.962Z,43
2023-03-03T19:55:23.960Z,45
2023-03-03T20:00:13.868Z,44
2023-03-03T20:05:16.257Z,44
2023-03-03T20:10:28.154Z,44
2023-03-03T20:15:24.030Z,44
2023-03-03T20:20:21.893Z,42
2023-03-03T20:25:19.834Z,44
2023-03-03T20:30:21.788Z,44
2023-03-03T20:35:20.690Z,43
2023-03-03T20:40:14.660Z,43
2023-03-03T20:45:20.582Z,44
2023-03-03T20:50:20.369Z,43
2023-03-03T20:55:18.201Z,42
2023-03-03T21:00:18.065Z,42
2023-03-03T21:05:19.809Z,43
2023-03-03T21:10:13.589Z,43
2023-03-03T21:15:16.692Z,42
2023-03-03T21:20:20.512Z,42
2023-03-03T21:25:18.282Z,41
2023-03-03T21:30:14.180Z,42
2023-03-03T21:35:21.634Z,41
2023-03-03T21:40:15.549Z,41
2023-03-03T21:45:16.315Z,41
2023-03-03T21:50:20.254Z,41
2023-03-03T21:55:16.445Z,41
2023-03-03T22:00:16.340Z,41
2023-03-03T22:05:14.657Z,40
2023-03-03T22:10:14.417Z,40
2023-03-03T22:15:16.602Z,39
2023-03-03T22:20:16.421Z,39
2023-03-03T22:25:16.252Z,40
2023-03-03T22:30:14.291Z,39
2023-03-03T22:35:18.321Z,40
2023-03-03T22:40:16.297Z,40
2023-03-03T22:45:16.138Z,40
2023-03-03T22:50:15.933Z,39
2023-03-03T22:55:17.707Z,40
2023-03-03T23:00:18.575Z,40
2023-03-03T23:05:20.741Z,40
2023-03-03T23:10:14.698Z,39
2023-03-03T23:15:14.554Z,39
2023-03-03T23:20:14.390Z,39
2023-03-03T23:25:16.218Z,39
2023-03-03T23:30:20.095Z,39
2023-03-03T23:35:13.966Z,39
2023-03-03T23:40:17.764Z,39
2023-03-03T23:45:14.700Z,39
2023-03-03T23:50:18.539Z,38
2023-03-03T23:55:16.395Z,39
